createdAt,value
2016-07-24T00:00:36.742Z,965.02
2016-07-24T00:01:36.756Z,965.02
2016-07-24T00:02:36.764Z,965.01
2016-07-24T00:03:36.764Z,965.04
2016-07-24T00:04:36.776Z,965.02
2016-07-24T00:05:36.792Z,964.99
2016-07-24T00:06:36.799Z,965.03
2016-07-24T00:07:36.804Z,965.01
2016-07-24T00:08:36.808Z,964.99
2016-07-24T00:09:36.818Z,965.02
2016-07-24T00:10:36.828Z,965
2016-07-24T00:11:36.836Z,964.99
2016-07-24T00:12:36.842Z,964.98
2016-07-24T00:13:36.851Z,964.96
2016-07-24T00:14:36.859Z,964.92
2016-07-24T00:15:36.866Z,964.98
2016-07-24T00:16:36.879Z,964.95
2016-07-24T00:17:36.887Z,964.96
2016-07-24T00:18:36.903Z,964.95
2016-07-24T00:19:36.905Z,964.93
2016-07-24T00:20:36.919Z,964.94
2016-07-24T00:21:36.922Z,964.9
2016-07-24T00:22:36.936Z,964.92
2016-07-24T00:23:36.944Z,964.93
2016-07-24T00:24:36.949Z,964.9
2016-07-24T00:25:36.961Z,964.92
2016-07-24T00:26:36.971Z,964.9
2016-07-24T00:27:36.974Z,964.91
2016-07-24T00:28:36.982Z,964.92
2016-07-24T00:29:36.993Z,964.87
2016-07-24T00:30:37.001Z,964.93
2016-07-24T00:31:37.015Z,964.91
2016-07-24T00:32:37.023Z,964.9
2016-07-24T00:33:37.024Z,964.93
2016-07-24T00:34:37.037Z,964.92
2016-07-24T00:35:37.045Z,964.96
2016-07-24T00:36:37.057Z,964.91
2016-07-24T00:37:37.058Z,964.96
2016-07-24T00:38:37.076Z,964.91
2016-07-24T00:39:37.076Z,964.9
2016-07-24T00:40:37.087Z,964.95
2016-07-24T00:41:37.094Z,964.97
2016-07-24T00:42:37.104Z,964.93
2016-07-24T00:43:37.113Z,964.99
2016-07-24T00:44:37.119Z,964.93
2016-07-24T00:45:37.135Z,964.95
2016-07-24T00:46:37.143Z,964.96
2016-07-24T00:47:37.162Z,964.98
2016-07-24T00:48:37.155Z,964.98
2016-07-24T00:49:37.162Z,964.96
2016-07-24T00:50:37.171Z,964.94
2016-07-24T00:51:37.180Z,964.95
2016-07-24T00:52:37.188Z,964.96
2016-07-24T00:53:37.203Z,964.96
2016-07-24T00:54:37.205Z,964.96
2016-07-24T00:55:37.219Z,964.97
2016-07-24T00:56:37.222Z,964.95
2016-07-24T00:57:37.243Z,964.94
2016-07-24T00:58:37.247Z,964.95
2016-07-24T00:59:37.255Z,964.91
2016-07-24T01:00:37.263Z,964.94
2016-07-24T01:01:37.266Z,964.91
2016-07-24T01:02:37.275Z,964.93
2016-07-24T01:03:37.290Z,964.94
2016-07-24T01:04:37.300Z,964.95
2016-07-24T01:05:37.305Z,964.96
2016-07-24T01:06:37.309Z,964.97
2016-07-24T01:07:37.317Z,964.95
2016-07-24T01:08:37.326Z,964.96
2016-07-24T01:09:37.344Z,964.96
2016-07-24T01:10:37.349Z,964.96
2016-07-24T01:11:37.358Z,964.9
2016-07-24T01:12:37.367Z,964.9
2016-07-24T01:13:37.375Z,964.93
2016-07-24T01:14:37.375Z,964.94
2016-07-24T01:15:37.385Z,964.93
2016-07-24T01:16:37.393Z,964.99
2016-07-24T01:17:37.402Z,964.92
2016-07-24T01:18:37.418Z,964.95
2016-07-24T01:19:37.418Z,964.94
2016-07-24T01:20:37.435Z,964.94
2016-07-24T01:21:37.442Z,964.96
2016-07-24T01:22:37.445Z,964.92
2016-07-24T01:23:37.460Z,964.91
2016-07-24T01:24:37.461Z,964.91
2016-07-24T01:25:37.471Z,964.86
2016-07-24T01:26:37.480Z,964.88
2016-07-24T01:27:37.495Z,964.88
2016-07-24T01:28:37.496Z,964.87
2016-07-24T01:29:37.506Z,964.91
2016-07-24T01:30:37.518Z,964.88
2016-07-24T01:31:37.524Z,964.89
2016-07-24T01:32:37.531Z,964.91
2016-07-24T01:33:37.547Z,964.9
2016-07-24T01:34:37.550Z,964.94
2016-07-24T01:35:37.563Z,964.95
2016-07-24T01:36:37.565Z,964.94
2016-07-24T01:37:37.574Z,964.92
2016-07-24T01:38:37.591Z,964.92
2016-07-24T01:39:37.597Z,964.87
2016-07-24T01:40:37.602Z,964.91
2016-07-24T01:41:37.612Z,964.89
2016-07-24T01:42:37.617Z,964.91
2016-07-24T01:43:37.625Z,964.9
2016-07-24T01:44:37.642Z,964.91
2016-07-24T01:45:37.649Z,964.93
2016-07-24T01:46:37.650Z,964.92
2016-07-24T01:47:37.661Z,964.98
2016-07-24T01:48:37.674Z,964.99
2016-07-24T01:49:37.686Z,964.96
2016-07-24T01:50:37.687Z,964.97
2016-07-24T01:51:37.700Z,964.97
2016-07-24T01:52:37.703Z,964.95
2016-07-24T01:53:37.711Z,964.93
2016-07-24T01:54:37.718Z,964.9
2016-07-24T01:55:37.730Z,964.92
2016-07-24T01:56:37.736Z,964.93
2016-07-24T01:57:37.748Z,964.95
2016-07-24T01:58:37.756Z,964.85
2016-07-24T01:59:37.769Z,964.86
2016-07-24T02:00:37.771Z,964.88
2016-07-24T02:01:37.787Z,964.88
2016-07-24T02:02:37.796Z,964.88
2016-07-24T02:03:37.803Z,964.9
2016-07-24T02:04:37.803Z,964.84
2016-07-24T02:05:37.819Z,964.88
2016-07-24T02:06:37.829Z,964.87
2016-07-24T02:07:37.837Z,964.88
2016-07-24T02:08:37.845Z,964.84
2016-07-24T02:09:37.850Z,964.86
2016-07-24T02:10:37.868Z,964.88
2016-07-24T02:11:37.872Z,964.86
2016-07-24T02:12:37.881Z,964.85
2016-07-24T02:13:37.888Z,964.83
2016-07-24T02:14:37.889Z,964.85
2016-07-24T02:15:37.904Z,964.83
2016-07-24T02:16:37.913Z,964.83
2016-07-24T02:17:37.922Z,964.79
2016-07-24T02:18:37.952Z,964.83
2016-07-24T02:19:37.940Z,964.84
2016-07-24T02:20:37.944Z,964.84
2016-07-24T02:21:37.952Z,964.84
2016-07-24T02:22:37.957Z,964.84
2016-07-24T02:23:37.974Z,964.82
2016-07-24T02:24:37.987Z,964.81
2016-07-24T02:25:37.983Z,964.8
2016-07-24T02:26:38.001Z,964.8
2016-07-24T02:27:38.006Z,964.82
2016-07-24T02:28:38.007Z,964.77
2016-07-24T02:29:38.018Z,964.78
2016-07-24T02:30:38.034Z,964.76
2016-07-24T02:31:38.037Z,964.76
2016-07-24T02:32:38.044Z,964.73
2016-07-24T02:33:38.053Z,964.74
2016-07-24T02:34:38.060Z,964.75
2016-07-24T02:35:38.069Z,964.73
2016-07-24T02:36:38.077Z,964.76
2016-07-24T02:37:38.095Z,964.77
2016-07-24T02:38:38.092Z,964.77
2016-07-24T02:39:38.106Z,964.8
2016-07-24T02:40:38.112Z,964.76
2016-07-24T02:41:38.128Z,964.75
2016-07-24T02:42:38.137Z,964.73
2016-07-24T02:43:38.137Z,964.75
2016-07-24T02:44:38.147Z,964.69
2016-07-24T02:45:38.161Z,964.74
2016-07-24T02:46:38.171Z,964.73
2016-07-24T02:47:38.169Z,964.79
2016-07-24T02:48:38.187Z,964.75
2016-07-24T02:49:38.199Z,964.79
2016-07-24T02:50:38.204Z,964.78
2016-07-24T02:51:38.214Z,964.78
2016-07-24T02:52:38.214Z,964.79
2016-07-24T02:53:38.228Z,964.83
2016-07-24T02:54:38.230Z,964.85
2016-07-24T02:55:38.244Z,964.83
2016-07-24T02:56:38.247Z,964.89
2016-07-24T02:57:38.263Z,964.87
2016-07-24T02:58:38.275Z,964.84
2016-07-24T02:59:38.273Z,964.86
2016-07-24T03:00:38.289Z,964.87
2016-07-24T03:01:38.290Z,964.87
2016-07-24T03:02:38.304Z,964.84
2016-07-24T03:03:38.308Z,964.81
2016-07-24T03:04:38.326Z,964.81
2016-07-24T03:05:38.330Z,964.76
2016-07-24T03:06:38.339Z,964.79
2016-07-24T03:07:38.344Z,964.78
2016-07-24T03:08:38.359Z,964.8
2016-07-24T03:09:38.361Z,964.79
2016-07-24T03:10:38.370Z,964.79
2016-07-24T03:11:38.376Z,964.8
2016-07-24T03:12:38.384Z,964.78
2016-07-24T03:13:38.400Z,964.82
2016-07-24T03:14:38.402Z,964.81
2016-07-24T03:15:38.414Z,964.8
2016-07-24T03:16:38.424Z,964.82
2016-07-24T03:17:38.436Z,964.77
2016-07-24T03:18:38.437Z,964.77
2016-07-24T03:19:38.445Z,964.8
2016-07-24T03:20:38.461Z,964.77
2016-07-24T03:21:38.461Z,964.76
2016-07-24T03:22:38.480Z,964.8
2016-07-24T03:23:38.475Z,964.77
2016-07-24T03:24:38.695Z,964.78
2016-07-24T03:25:38.503Z,964.77
2016-07-24T03:26:38.504Z,964.8
2016-07-24T03:27:38.519Z,964.77
2016-07-24T03:28:38.529Z,964.8
2016-07-24T03:29:38.529Z,964.79
2016-07-24T03:30:38.543Z,964.79
2016-07-24T03:31:38.550Z,964.81
2016-07-24T03:32:38.562Z,964.79
2016-07-24T03:33:38.563Z,964.78
2016-07-24T03:34:38.576Z,964.8
2016-07-24T03:35:38.587Z,964.83
2016-07-24T03:36:38.597Z,964.85
2016-07-24T03:37:38.599Z,964.81
2016-07-24T03:38:38.611Z,964.82
2016-07-24T03:39:38.612Z,964.78
2016-07-24T03:40:38.629Z,964.82
2016-07-24T03:41:38.632Z,964.84
2016-07-24T03:42:38.638Z,964.78
2016-07-24T03:43:38.652Z,964.79
2016-07-24T03:44:38.658Z,964.78
2016-07-24T03:45:38.669Z,964.77
2016-07-24T03:46:38.679Z,964.79
2016-07-24T03:47:38.689Z,964.81
2016-07-24T03:48:38.688Z,964.77
2016-07-24T03:49:38.704Z,964.81
2016-07-24T03:50:38.708Z,964.8
2016-07-24T03:51:38.723Z,964.79
2016-07-24T03:52:38.727Z,964.8
2016-07-24T03:53:38.737Z,964.79
2016-07-24T03:54:38.747Z,964.81
2016-07-24T03:55:38.755Z,964.8
2016-07-24T03:56:38.764Z,964.78
2016-07-24T03:57:38.765Z,964.78
2016-07-24T03:58:38.781Z,964.74
2016-07-24T03:59:38.792Z,964.75
2016-07-24T04:00:38.798Z,964.77
2016-07-24T04:01:38.800Z,964.79
2016-07-24T04:02:38.816Z,964.74
2016-07-24T04:03:38.817Z,964.75
2016-07-24T04:04:38.823Z,964.75
2016-07-24T04:05:38.831Z,964.74
2016-07-24T04:06:38.850Z,964.78
2016-07-24T04:07:38.857Z,964.74
2016-07-24T04:08:38.859Z,964.75
2016-07-24T04:09:38.876Z,964.74
2016-07-24T04:10:38.884Z,964.76
2016-07-24T04:11:38.891Z,964.78
2016-07-24T04:12:38.894Z,964.77
2016-07-24T04:13:38.901Z,964.8
2016-07-24T04:14:38.912Z,964.83
2016-07-24T04:15:38.916Z,964.85
2016-07-24T04:16:38.928Z,964.88
2016-07-24T04:17:38.941Z,964.88
2016-07-24T04:18:38.941Z,964.9
2016-07-24T04:19:38.952Z,964.9
2016-07-24T04:20:38.968Z,964.93
2016-07-24T04:21:38.967Z,964.93
2016-07-24T04:22:38.984Z,964.96
2016-07-24T04:23:38.987Z,964.98
2016-07-24T04:24:39.002Z,964.99
2016-07-24T04:25:39.011Z,964.97
2016-07-24T04:26:39.018Z,965
2016-07-24T04:27:39.027Z,964.99
2016-07-24T04:28:39.029Z,964.99
2016-07-24T04:29:39.036Z,965.01
2016-07-24T04:30:39.043Z,965.02
2016-07-24T04:31:39.061Z,965.03
2016-07-24T04:32:39.066Z,965.09
2016-07-24T04:33:39.075Z,965.08
2016-07-24T04:34:39.085Z,965.06
2016-07-24T04:35:39.088Z,965.09
2016-07-24T04:36:39.102Z,965.05
2016-07-24T04:37:39.111Z,965.05
2016-07-24T04:38:39.115Z,965.03
2016-07-24T04:39:39.125Z,965.02
2016-07-24T04:40:39.137Z,965.04
2016-07-24T04:41:39.143Z,965.03
2016-07-24T04:42:39.153Z,965.06
2016-07-24T04:43:39.156Z,965.06
2016-07-24T04:44:39.171Z,965.08
2016-07-24T04:45:39.174Z,965.05
2016-07-24T04:46:39.186Z,965.07
2016-07-24T04:47:39.198Z,965.07
2016-07-24T04:48:39.200Z,965.05
2016-07-24T04:49:39.207Z,965.05
2016-07-24T04:50:39.222Z,965.07
2016-07-24T04:51:39.228Z,965.05
2016-07-24T04:52:39.232Z,965.05
2016-07-24T04:53:39.249Z,965.04
2016-07-24T04:54:39.250Z,965.09
2016-07-24T04:55:39.264Z,965.1
2016-07-24T04:56:39.270Z,965.08
2016-07-24T04:57:39.275Z,965.08
2016-07-24T04:58:39.290Z,965.11
2016-07-24T04:59:39.298Z,965.1
2016-07-24T05:00:39.308Z,965.13
2016-07-24T05:01:39.308Z,965.13
2016-07-24T05:02:39.316Z,965.15
2016-07-24T05:03:39.333Z,965.18
2016-07-24T05:04:39.341Z,965.16
2016-07-24T05:05:39.341Z,965.15
2016-07-24T05:06:39.348Z,965.17
2016-07-24T05:07:39.368Z,965.16
2016-07-24T05:08:39.371Z,965.17
2016-07-24T05:09:39.376Z,965.16
2016-07-24T05:10:39.384Z,965.16
2016-07-24T05:11:39.395Z,965.21
2016-07-24T05:12:39.405Z,965.19
2016-07-24T05:13:39.410Z,965.22
2016-07-24T05:14:39.428Z,965.21
2016-07-24T05:15:39.431Z,965.21
2016-07-24T05:16:39.436Z,965.2
2016-07-24T05:17:39.443Z,965.19
2016-07-24T05:18:39.459Z,965.18
2016-07-24T05:19:39.461Z,965.18
2016-07-24T05:20:39.468Z,965.16
2016-07-24T05:21:39.486Z,965.16
2016-07-24T05:22:39.492Z,965.11
2016-07-24T05:23:39.494Z,965.14
2016-07-24T05:24:39.509Z,965.14
2016-07-24T05:25:39.517Z,965.17
2016-07-24T05:26:39.527Z,965.16
2016-07-24T05:27:39.531Z,965.18
2016-07-24T05:28:39.543Z,965.16
2016-07-24T05:29:39.545Z,965.14
2016-07-24T05:30:39.555Z,965.17
2016-07-24T05:31:39.572Z,965.15
2016-07-24T05:32:39.571Z,965.17
2016-07-24T05:33:39.580Z,965.19
2016-07-24T05:34:39.590Z,965.25
2016-07-24T05:35:39.602Z,965.2
2016-07-24T05:36:39.606Z,965.2
2016-07-24T05:37:39.613Z,965.22
2016-07-24T05:38:39.631Z,965.24
2016-07-24T05:39:39.639Z,965.22
2016-07-24T05:40:39.637Z,965.24
2016-07-24T05:41:39.651Z,965.23
2016-07-24T05:42:39.662Z,965.22
2016-07-24T05:43:39.666Z,965.23
2016-07-24T05:44:39.673Z,965.23
2016-07-24T05:45:39.683Z,965.24
2016-07-24T05:46:39.690Z,965.22
2016-07-24T05:47:39.707Z,965.18
2016-07-24T05:48:39.713Z,965.22
2016-07-24T05:49:39.719Z,965.27
2016-07-24T05:50:39.740Z,965.28
2016-07-24T05:51:39.741Z,965.25
2016-07-24T05:52:39.744Z,965.26
2016-07-24T05:53:39.752Z,965.27
2016-07-24T05:54:39.768Z,965.29
2016-07-24T05:55:39.766Z,965.26
2016-07-24T05:56:39.785Z,965.27
2016-07-24T05:57:39.791Z,965.25
2016-07-24T05:58:39.800Z,965.25
2016-07-24T05:59:39.804Z,965.25
2016-07-24T06:00:39.811Z,965.24
2016-07-24T06:01:39.824Z,965.22
2016-07-24T06:02:39.834Z,965.25
2016-07-24T06:03:39.838Z,965.26
2016-07-24T06:04:39.844Z,965.23
2016-07-24T06:05:39.861Z,965.23
2016-07-24T06:06:39.875Z,965.26
2016-07-24T06:07:39.879Z,965.25
2016-07-24T06:08:39.877Z,965.28
2016-07-24T06:09:39.888Z,965.26
2016-07-24T06:10:39.898Z,965.24
2016-07-24T06:11:39.904Z,965.25
2016-07-24T06:12:39.916Z,965.28
2016-07-24T06:13:39.930Z,965.26
2016-07-24T06:14:39.939Z,965.27
2016-07-24T06:15:39.947Z,965.27
2016-07-24T06:16:39.950Z,965.25
2016-07-24T06:17:39.961Z,965.27
2016-07-24T06:18:39.973Z,965.26
2016-07-24T06:19:39.985Z,965.28
2016-07-24T06:20:39.988Z,965.28
2016-07-24T06:21:39.997Z,965.27
2016-07-24T06:22:40.008Z,965.32
2016-07-24T06:23:40.018Z,965.32
2016-07-24T06:24:40.017Z,965.31
2016-07-24T06:25:40.028Z,965.3
2016-07-24T06:26:40.041Z,965.3
2016-07-24T06:27:40.042Z,965.31
2016-07-24T06:28:40.059Z,965.29
2016-07-24T06:29:40.069Z,965.32
2016-07-24T06:30:40.077Z,965.35
2016-07-24T06:31:40.077Z,965.32
2016-07-24T06:32:40.088Z,965.34
2016-07-24T06:33:40.102Z,965.29
2016-07-24T06:34:40.112Z,965.31
2016-07-24T06:35:40.124Z,965.29
2016-07-24T06:36:40.130Z,965.3
2016-07-24T06:37:40.132Z,965.31
2016-07-24T06:38:40.140Z,965.31
2016-07-24T06:39:40.150Z,965.34
2016-07-24T06:40:40.165Z,965.32
2016-07-24T06:41:40.170Z,965.33
2016-07-24T06:42:40.175Z,965.34
2016-07-24T06:43:40.182Z,965.34
2016-07-24T06:44:40.197Z,965.32
2016-07-24T06:45:40.208Z,965.32
2016-07-24T06:46:40.214Z,965.28
2016-07-24T06:47:40.218Z,965.26
2016-07-24T06:48:40.226Z,965.26
2016-07-24T06:49:40.247Z,965.25
2016-07-24T06:50:40.244Z,965.23
2016-07-24T06:51:40.251Z,965.27
2016-07-24T06:52:40.260Z,965.27
2016-07-24T06:53:40.284Z,965.26
2016-07-24T06:54:40.282Z,965.24
2016-07-24T06:55:40.284Z,965.25
2016-07-24T06:56:40.300Z,965.25
2016-07-24T06:57:40.304Z,965.22
2016-07-24T06:58:40.322Z,965.24
2016-07-24T06:59:40.325Z,965.26
2016-07-24T07:00:40.333Z,965.28
2016-07-24T07:01:40.357Z,965.2
2016-07-24T07:02:40.350Z,965.2
2016-07-24T07:03:40.354Z,965.17
2016-07-24T07:04:40.365Z,965.18
2016-07-24T07:05:40.382Z,965.23
2016-07-24T07:06:40.379Z,965.2
2016-07-24T07:07:40.396Z,965.19
2016-07-24T07:08:40.404Z,965.17
2016-07-24T07:09:40.414Z,965.19
2016-07-24T07:10:40.417Z,965.15
2016-07-24T07:11:40.430Z,965.16
2016-07-24T07:12:40.434Z,965.17
2016-07-24T07:13:40.450Z,965.18
2016-07-24T07:14:40.450Z,965.17
2016-07-24T07:15:40.467Z,965.15
2016-07-24T07:16:40.476Z,965.18
2016-07-24T07:17:40.477Z,965.17
2016-07-24T07:18:40.491Z,965.18
2016-07-24T07:19:40.500Z,965.22
2016-07-24T07:20:40.509Z,965.21
2016-07-24T07:21:40.524Z,965.19
2016-07-24T07:22:40.519Z,965.2
2016-07-24T07:23:40.529Z,965.16
2016-07-24T07:24:40.544Z,965.21
2016-07-24T07:25:40.560Z,965.23
2016-07-24T07:26:40.552Z,965.22
2016-07-24T07:27:40.562Z,965.22
2016-07-24T07:28:40.570Z,965.22
2016-07-24T07:29:40.587Z,965.24
2016-07-24T07:30:40.592Z,965.26
2016-07-24T07:31:40.608Z,965.24
2016-07-24T07:32:40.612Z,965.25
2016-07-24T07:33:40.612Z,965.28
2016-07-24T07:34:40.629Z,965.24
2016-07-24T07:35:40.628Z,965.26
2016-07-24T07:36:40.636Z,965.24
2016-07-24T07:37:40.652Z,965.26
2016-07-24T07:38:40.654Z,965.25
2016-07-24T07:39:40.665Z,965.26
2016-07-24T07:40:40.683Z,965.29
2016-07-24T07:41:40.690Z,965.3
2016-07-24T07:42:40.691Z,965.34
2016-07-24T07:43:40.705Z,965.33
2016-07-24T07:44:40.707Z,965.35
2016-07-24T07:45:40.723Z,965.34
2016-07-24T07:46:40.726Z,965.37
2016-07-24T07:47:40.733Z,965.35
2016-07-24T07:48:40.742Z,965.37
2016-07-24T07:49:40.758Z,965.38
2016-07-24T07:50:40.766Z,965.37
2016-07-24T07:51:40.766Z,965.4
2016-07-24T07:52:40.784Z,965.36
2016-07-24T07:53:40.793Z,965.35
2016-07-24T07:54:40.799Z,965.35
2016-07-24T07:55:40.809Z,965.37
2016-07-24T07:56:40.819Z,965.35
2016-07-24T07:57:40.825Z,965.35
2016-07-24T07:58:40.835Z,965.37
2016-07-24T07:59:40.836Z,965.36
2016-07-24T08:00:40.844Z,965.43
2016-07-24T08:01:40.851Z,965.39
2016-07-24T08:02:40.863Z,965.39
2016-07-24T08:03:40.872Z,965.4
2016-07-24T08:04:40.887Z,965.36
2016-07-24T08:05:40.886Z,965.4
2016-07-24T08:06:40.904Z,965.41
2016-07-24T08:07:40.921Z,965.41
2016-07-24T08:08:40.915Z,965.39
2016-07-24T08:09:40.927Z,965.4
2016-07-24T08:10:40.938Z,965.42
2016-07-24T08:11:40.940Z,965.41
2016-07-24T08:12:40.947Z,965.41
2016-07-24T08:13:40.956Z,965.4
2016-07-24T08:14:40.975Z,965.43
2016-07-24T08:15:40.982Z,965.44
2016-07-24T08:16:40.983Z,965.4
2016-07-24T08:17:40.993Z,965.39
2016-07-24T08:18:41.006Z,965.4
2016-07-24T08:19:41.008Z,965.4
2016-07-24T08:20:41.018Z,965.41
2016-07-24T08:21:41.031Z,965.42
2016-07-24T08:22:41.032Z,965.41
2016-07-24T08:23:41.042Z,965.41
2016-07-24T08:24:41.050Z,965.38
2016-07-24T08:25:41.066Z,965.37
2016-07-24T08:26:41.079Z,965.36
2016-07-24T08:27:41.077Z,965.38
2016-07-24T08:28:41.092Z,965.37
2016-07-24T08:29:41.101Z,965.34
2016-07-24T08:30:41.102Z,965.32
2016-07-24T08:31:41.112Z,965.36
2016-07-24T08:32:41.118Z,965.31
2016-07-24T08:33:41.140Z,965.31
2016-07-24T08:34:41.138Z,965.32
2016-07-24T08:35:41.153Z,965.32
2016-07-24T08:36:41.153Z,965.33
2016-07-24T08:37:41.164Z,965.33
2016-07-24T08:38:41.177Z,965.28
2016-07-24T08:39:41.187Z,965.29
2016-07-24T08:40:41.197Z,965.29
2016-07-24T08:41:41.206Z,965.32
2016-07-24T08:42:41.207Z,965.28
2016-07-24T08:43:41.228Z,965.3
2016-07-24T08:44:41.224Z,965.27
2016-07-24T08:45:41.231Z,965.31
2016-07-24T08:46:41.243Z,965.29
2016-07-24T08:47:41.252Z,965.3
2016-07-24T08:48:41.261Z,965.26
2016-07-24T08:49:41.270Z,965.23
2016-07-24T08:50:41.284Z,965.25
2016-07-24T08:51:41.291Z,965.27
2016-07-24T08:52:41.295Z,965.25
2016-07-24T08:53:41.304Z,965.23
2016-07-24T08:54:41.316Z,965.22
2016-07-24T08:55:41.333Z,965.22
2016-07-24T08:56:41.335Z,965.24
2016-07-24T08:57:41.352Z,965.21
2016-07-24T08:58:41.345Z,965.16
2016-07-24T08:59:41.371Z,965.16
2016-07-24T09:00:41.368Z,965.2
2016-07-24T09:01:41.380Z,965.2
2016-07-24T09:02:41.387Z,965.24
2016-07-24T09:03:41.396Z,965.2
2016-07-24T09:04:41.398Z,965.21
2016-07-24T09:05:41.405Z,965.23
2016-07-24T09:06:41.414Z,965.21
2016-07-24T09:07:41.425Z,965.22
2016-07-24T09:08:41.432Z,965.2
2016-07-24T09:09:41.449Z,965.2
2016-07-24T09:10:41.459Z,965.16
2016-07-24T09:11:41.457Z,965.16
2016-07-24T09:12:41.473Z,965.11
2016-07-24T09:13:41.477Z,965.16
2016-07-24T09:14:41.493Z,965.16
2016-07-24T09:15:41.504Z,965.14
2016-07-24T09:16:41.500Z,965.15
2016-07-24T09:17:41.509Z,965.16
2016-07-24T09:18:41.522Z,965.14
2016-07-24T09:19:41.528Z,965.15
2016-07-24T09:20:41.535Z,965.17
2016-07-24T09:21:41.545Z,965.13
2016-07-24T09:22:41.557Z,965.15
2016-07-24T09:23:41.561Z,965.15
2016-07-24T09:24:41.573Z,965.15
2016-07-24T09:25:41.586Z,965.15
2016-07-24T09:26:41.598Z,965.15
2016-07-24T09:27:41.599Z,965.15
2016-07-24T09:28:41.620Z,965.13
2016-07-24T09:29:41.631Z,965.15
2016-07-24T09:30:41.631Z,965.17
2016-07-24T09:31:41.633Z,965.14
2016-07-24T09:32:41.639Z,965.14
2016-07-24T09:33:41.652Z,965.13
2016-07-24T09:34:41.661Z,965.13
2016-07-24T09:35:41.670Z,965.14
2016-07-24T09:36:41.684Z,965.14
2016-07-24T09:37:41.695Z,965.11
2016-07-24T09:38:41.694Z,965.12
2016-07-24T09:39:41.712Z,965.09
2016-07-24T09:40:41.719Z,965.11
2016-07-24T09:41:41.723Z,965.1
2016-07-24T09:42:41.730Z,965.09
2016-07-24T09:43:41.739Z,965.07
2016-07-24T09:44:41.758Z,965.07
2016-07-24T09:45:41.755Z,965.09
2016-07-24T09:46:41.768Z,965.07
2016-07-24T09:47:41.787Z,965.08
2016-07-24T09:48:41.782Z,965.04
2016-07-24T09:49:41.803Z,965.03
2016-07-24T09:50:41.828Z,965.01
2016-07-24T09:51:41.827Z,965.03
2016-07-24T09:52:41.819Z,965.05
2016-07-24T09:53:41.839Z,965.05
2016-07-24T09:54:41.837Z,965.05
2016-07-24T09:55:41.847Z,965.05
2016-07-24T09:56:41.856Z,965.02
2016-07-24T09:57:41.868Z,965
2016-07-24T09:58:41.872Z,964.98
2016-07-24T09:59:41.891Z,964.97
2016-07-24T10:00:41.898Z,965.01
2016-07-24T10:01:41.908Z,964.97
2016-07-24T10:02:41.916Z,964.98
2016-07-24T10:03:41.920Z,964.98
2016-07-24T10:04:41.929Z,964.97
2016-07-24T10:05:41.941Z,964.98
2016-07-24T10:06:41.949Z,964.98
2016-07-24T10:07:41.960Z,964.97
2016-07-24T10:08:41.967Z,964.96
2016-07-24T10:09:41.984Z,964.99
2016-07-24T10:10:41.985Z,964.96
2016-07-24T10:11:41.998Z,964.94
2016-07-24T10:12:42.006Z,965
2016-07-24T10:13:42.013Z,964.98
2016-07-24T10:14:42.014Z,964.96
2016-07-24T10:15:42.030Z,965.02
2016-07-24T10:16:42.033Z,964.98
2016-07-24T10:17:42.048Z,964.95
2016-07-24T10:18:42.051Z,964.93
2016-07-24T10:19:42.059Z,964.96
2016-07-24T10:20:42.068Z,964.95
2016-07-24T10:21:42.077Z,964.93
2016-07-24T10:22:42.094Z,964.87
2016-07-24T10:23:42.096Z,964.85
2016-07-24T10:24:42.111Z,964.85
2016-07-24T10:25:42.112Z,964.84
2016-07-24T10:26:42.128Z,964.89
2016-07-24T10:27:42.132Z,964.88
2016-07-24T10:28:42.141Z,964.86
2016-07-24T10:29:42.151Z,964.82
2016-07-24T10:30:42.161Z,964.85
2016-07-24T10:31:42.174Z,964.84
2016-07-24T10:32:42.181Z,964.81
2016-07-24T10:33:42.199Z,964.83
2016-07-24T10:34:42.201Z,964.88
2016-07-24T10:35:42.203Z,964.83
2016-07-24T10:36:42.213Z,964.8
2016-07-24T10:37:42.227Z,964.78
2016-07-24T10:38:42.229Z,964.79
2016-07-24T10:39:42.241Z,964.82
2016-07-24T10:40:42.254Z,964.76
2016-07-24T10:41:42.267Z,964.76
2016-07-24T10:42:42.267Z,964.75
2016-07-24T10:43:42.284Z,964.75
2016-07-24T10:44:42.290Z,964.76
2016-07-24T10:45:42.301Z,964.73
2016-07-24T10:46:42.310Z,964.76
2016-07-24T10:47:42.319Z,964.71
2016-07-24T10:48:42.320Z,964.75
2016-07-24T10:49:42.331Z,964.77
2016-07-24T10:50:42.339Z,964.74
2016-07-24T10:51:42.347Z,964.75
2016-07-24T10:52:42.357Z,964.72
2016-07-24T10:53:42.364Z,964.76
2016-07-24T10:54:42.375Z,964.69
2016-07-24T10:55:42.385Z,964.75
2016-07-24T10:56:42.395Z,964.76
2016-07-24T10:57:42.409Z,964.74
2016-07-24T10:58:42.417Z,964.76
2016-07-24T10:59:42.428Z,964.73
2016-07-24T11:00:42.431Z,964.75
2016-07-24T11:01:42.441Z,964.71
2016-07-24T11:02:42.457Z,964.74
2016-07-24T11:03:42.459Z,964.78
2016-07-24T11:04:42.464Z,964.76
2016-07-24T11:05:42.482Z,964.76
2016-07-24T11:06:42.485Z,964.76
2016-07-24T11:07:42.496Z,964.77
2016-07-24T11:08:42.510Z,964.76
2016-07-24T11:09:42.511Z,964.75
2016-07-24T11:10:42.530Z,964.76
2016-07-24T11:11:42.529Z,964.78
2016-07-24T11:12:42.539Z,964.78
2016-07-24T11:13:42.561Z,964.79
2016-07-24T11:14:42.557Z,964.79
2016-07-24T11:15:42.573Z,964.77
2016-07-24T11:16:42.576Z,964.77
2016-07-24T11:17:42.588Z,964.76
2016-07-24T11:18:42.594Z,964.77
2016-07-24T11:19:42.608Z,964.77
2016-07-24T11:20:42.621Z,964.75
2016-07-24T11:21:42.627Z,964.76
2016-07-24T11:22:42.629Z,964.72
2016-07-24T11:23:42.646Z,964.74
2016-07-24T11:24:42.656Z,964.76
2016-07-24T11:25:42.668Z,964.74
2016-07-24T11:26:42.668Z,964.76
2016-07-24T11:27:42.683Z,964.77
2016-07-24T11:28:42.692Z,964.78
2016-07-24T11:29:42.695Z,964.78
2016-07-24T11:30:42.702Z,964.75
2016-07-24T11:31:42.718Z,964.75
2016-07-24T11:32:42.728Z,964.74
2016-07-24T11:33:42.751Z,964.76
2016-07-24T11:34:42.737Z,964.71
2016-07-24T11:35:42.755Z,964.73
2016-07-24T11:36:42.767Z,964.72
2016-07-24T11:37:42.776Z,964.74
2016-07-24T11:38:42.783Z,964.72
2016-07-24T11:39:42.787Z,964.69
2016-07-24T11:40:42.792Z,964.68
2016-07-24T11:41:42.820Z,964.66
2016-07-24T11:42:42.811Z,964.68
2016-07-24T11:43:42.840Z,964.68
2016-07-24T11:44:42.832Z,964.66
2016-07-24T11:45:42.841Z,964.66
2016-07-24T11:46:42.848Z,964.67
2016-07-24T11:47:42.862Z,964.65
2016-07-24T11:48:42.877Z,964.68
2016-07-24T11:49:42.881Z,964.67
2016-07-24T11:50:42.893Z,964.66
2016-07-24T11:51:42.896Z,964.71
2016-07-24T11:52:42.905Z,964.65
2016-07-24T11:53:42.920Z,964.65
2016-07-24T11:54:42.924Z,964.61
2016-07-24T11:55:42.940Z,964.61
2016-07-24T11:56:42.947Z,964.58
2016-07-24T11:57:42.959Z,964.6
2016-07-24T11:58:42.961Z,964.62
2016-07-24T11:59:42.975Z,964.59
2016-07-24T12:00:42.985Z,964.58
2016-07-24T12:01:42.995Z,964.61
2016-07-24T12:02:42.996Z,964.57
2016-07-24T12:03:43.014Z,964.53
2016-07-24T12:04:43.025Z,964.59
2016-07-24T12:05:43.031Z,964.55
2016-07-24T12:06:43.041Z,964.54
2016-07-24T12:07:43.042Z,964.54
2016-07-24T12:08:43.060Z,964.55
2016-07-24T12:09:43.069Z,964.51
2016-07-24T12:10:43.071Z,964.48
2016-07-24T12:11:43.081Z,964.56
2016-07-24T12:12:43.097Z,964.51
2016-07-24T12:13:43.097Z,964.52
2016-07-24T12:14:43.114Z,964.52
2016-07-24T12:15:43.119Z,964.48
2016-07-24T12:16:43.136Z,964.46
2016-07-24T12:17:43.144Z,964.46
2016-07-24T12:18:43.144Z,964.47
2016-07-24T12:19:43.155Z,964.51
2016-07-24T12:20:43.164Z,964.52
2016-07-24T12:21:43.169Z,964.52
2016-07-24T12:22:43.184Z,964.53
2016-07-24T12:23:43.198Z,964.54
2016-07-24T12:24:43.205Z,964.52
2016-07-24T12:25:43.218Z,964.51
2016-07-24T12:26:43.221Z,964.51
2016-07-24T12:27:43.228Z,964.5
2016-07-24T12:28:43.238Z,964.49
2016-07-24T12:29:43.248Z,964.5
2016-07-24T12:30:43.261Z,964.49